Time;durP1;ratioP1;P1;durP2;ratioP2;P2;SDS_P1;SDS_P2;PMS_P1;PMS_P2;Temp;Humidity;BMP_temperature;BMP_pressure;BME280_temperature;BME280_humidity;BME280_pressure;Samples;Min_cycle;Max_cycle;Signal;HPM_P1;HPM_P2
2022/09/25 00:02:05;;;;;;;1.37;1.37;;;;;;;14.39;47.82;94799.97;2617457;47;20313;-74
2022/09/25 00:04:33;;;;;;;1.47;1.37;;;;;;;14.75;48.24;94791.47;2617370;54;20315;-75
2022/09/25 00:07:02;;;;;;;1.90;1.73;;;;;;;14.38;47.78;94806.34;2616758;47;20184;-75
2022/09/25 00:09:33;;;;;;;1.70;1.60;;;;;;;13.80;49.28;94800.88;2616708;54;20248;-74
2022/09/25 00:12:02;;;;;;;1.97;1.87;;;;;;;13.72;49.35;94797.84;2616786;47;20207;-74
2022/09/25 00:14:30;;;;;;;2.40;1.60;;;;;;;12.43;53.09;94796.75;2616387;47;20161;-75
2022/09/25 00:16:59;;;;;;;1.70;1.60;;;;;;;12.92;52.46;94794.47;2616829;47;20153;-75
2022/09/25 00:22:09;;;;;;;1.30;1.17;;;;;;;11.95;54.67;94798.91;2616696;47;20715;-75
2022/09/25 12:35:35;;;;;;;1.30;1.20;;;;;;;22.96;27.29;94526.94;2585984;47;20761;-73
2022/09/25 12:38:11;;;;;;;0.98;0.98;;;;;;;22.88;26.54;94501.09;2613406;54;20169;-75
2022/09/25 12:40:47;;;;;;;2.00;1.67;;;;;;;22.46;26.94;94508.97;2614929;54;20152;-74
2022/09/25 12:43:23;;;;;;;0.60;0.52;;;;;;;22.47;27.03;94501.00;2614551;54;20148;-74
2022/09/25 12:45:57;;;;;;;1.02;1.02;;;;;;;22.56;27.12;94510.97;2613843;54;20611;-74
2022/09/25 12:48:32;;;;;;;0.90;0.90;;;;;;;23.03;26.71;94499.38;2614358;54;20681;-74
2022/09/25 12:51:09;;;;;;;0.90;0.90;;;;;;;23.04;27.63;94477.69;2613290;54;20958;-75
2022/09/25 12:53:41;;;;;;;1.08;1.08;;;;;;;22.83;26.96;94480.22;2613807;47;20308;-77
2022/09/25 12:56:16;;;;;;;0.98;0.98;;;;;;;22.99;27.39;94497.28;2614777;47;20195;-76
2022/09/25 12:58:59;;;;;;;1.45;1.35;;;;;;;22.89;28.13;94494.56;2615716;54;20286;-78
2022/09/25 13:01:33;;;;;;;17.70;5.95;;;;;;;22.99;26.90;94488.59;2615025;47;20176;-75
2022/09/25 13:04:12;;;;;;;2.03;1.00;;;;;;;22.98;26.79;94478.50;2615269;47;20297;-77
2022/09/25 13:06:49;;;;;;;2.17;1.10;;;;;;;23.21;27.94;94475.94;2615068;54;20152;-76
2022/09/25 13:09:28;;;;;;;1.23;1.13;;;;;;;23.29;27.21;94461.31;2615385;47;20153;-76
2022/09/25 13:12:03;;;;;;;1.15;1.10;;;;;;;23.32;27.32;94447.56;2615202;54;20179;-76
2022/09/25 13:14:38;;;;;;;1.20;1.20;;;;;;;23.24;27.60;94447.69;2615811;39;20536;-76
2022/09/25 13:17:12;;;;;;;1.20;1.20;;;;;;;23.63;28.85;94457.06;2615283;47;20758;-77
2022/09/25 13:19:41;;;;;;;1.38;0.90;;;;;;;23.61;27.21;94453.50;2587490;54;20220;-76
2022/09/25 13:22:15;;;;;;;1.00;1.00;;;;;;;23.89;26.11;94452.91;2615240;54;20695;-76
2022/09/25 13:24:47;;;;;;;1.58;0.68;;;;;;;23.96;26.75;94445.50;2615378;54;20191;-74
2022/09/25 13:27:21;;;;;;;0.82;0.82;;;;;;;23.61;27.13;94450.63;2615243;47;20180;-76
2022/09/25 13:29:57;;;;;;;1.42;1.33;;;;;;;23.47;26.79;94450.88;2615142;54;20231;-76
2022/09/25 13:32:27;;;;;;;1.00;1.00;;;;;;;23.14;26.20;94434.16;2615375;54;20239;-77
2022/09/25 13:35:00;;;;;;;1.02;1.02;;;;;;;22.90;27.30;94451.97;2614935;54;20169;-77
2022/09/25 13:37:35;;;;;;;0.80;0.80;;;;;;;23.36;26.95;94451.09;2615518;47;20212;-76
2022/09/25 13:43:19;;;;;;;1.63;1.17;;;;;;;23.47;27.90;94434.25;2615594;47;20177;-76
2022/09/25 13:45:50;;;;;;;1.50;1.40;;;;;;;23.46;28.34;94403.91;2615043;47;20644;-78
2022/09/25 13:48:37;;;;;;;0.98;0.70;;;;;;;23.81;27.04;94435.72;2615395;47;20152;-78
2022/09/25 13:51:36;;;;;;;0.82;0.82;;;;;;;24.08;26.98;94422.06;2615432;47;20171;-77
2022/09/25 13:54:29;;;;;;;0.80;0.80;;;;;;;24.12;26.69;94429.25;2615283;47;20161;-81
2022/09/25 13:56:58;;;;;;;0.80;0.80;;;;;;;23.39;27.17;94423.56;2615354;47;20153;-77
2022/09/25 13:59:40;;;;;;;3.47;2.50;;;;;;;23.34;26.93;94416.44;2615182;54;20656;-77
2022/09/25 14:02:50;;;;;;;12.68;7.68;;;;;;;23.52;26.99;94411.75;2615260;47;20205;-78
2022/09/25 14:05:25;;;;;;;0.70;0.70;;;;;;;22.80;27.79;94414.63;2614940;54;20312;-77
2022/09/25 14:08:01;;;;;;;1.00;1.00;;;;;;;23.10;27.84;94416.91;2614936;54;20280;-77
2022/09/25 14:10:33;;;;;;;0.88;0.88;;;;;;;22.83;28.72;94410.22;2615250;54;20212;-77
2022/09/25 14:13:02;;;;;;;0.85;0.85;;;;;;;23.14;28.26;94419.72;2615821;46;20181;-78
2022/09/25 14:15:34;;;;;;;1.58;1.00;;;;;;;23.41;27.61;94414.13;2616229;47;20157;-78
2022/09/25 14:18:07;;;;;;;0.98;0.95;;;;;;;23.75;27.56;94409.84;2615515;54;20743;-78
2022/09/25 14:20:43;;;;;;;1.25;1.15;;;;;;;24.03;28.38;94417.16;2615323;47;20698;-80
2022/09/25 14:23:15;;;;;;;0.82;0.73;;;;;;;24.19;27.28;94408.06;2615370;54;20248;-77
2022/09/25 14:25:47;;;;;;;1.17;1.15;;;;;;;24.35;27.45;94407.00;2615053;47;20177;-79
2022/09/25 14:28:25;;;;;;;1.00;1.00;;;;;;;24.36;27.51;94403.34;2615008;54;20156;-78
2022/09/25 14:31:22;;;;;;;1.10;1.00;;;;;;;24.42;28.25;94417.69;2614919;49;20168;-79
2022/09/25 14:34:13;;;;;;;0.77;0.77;;;;;;;24.49;28.14;94414.63;2615144;47;20172;-76
2022/09/25 14:36:52;;;;;;;0.50;0.50;;;;;;;24.37;27.76;94415.66;2615761;47;20612;-78
2022/09/25 14:39:29;;;;;;;0.45;0.45;;;;;;;23.90;27.13;94405.16;2615762;47;20164;-77
2022/09/25 14:42:25;;;;;;;1.02;1.02;;;;;;;23.39;27.75;94417.78;2615355;54;20248;-78
2022/09/25 14:45:25;;;;;;;0.70;0.63;;;;;;;23.48;29.51;94412.56;2615832;47;20242;-79
2022/09/25 14:47:59;;;;;;;0.70;0.70;;;;;;;23.99;27.42;94415.06;2614963;54;20294;-77
2022/09/25 14:50:31;;;;;;;0.95;0.95;;;;;;;23.13;29.17;94408.91;2614893;47;20156;-79
2022/09/25 14:53:06;;;;;;;1.00;0.98;;;;;;;22.92;28.55;94373.97;2616768;47;20161;-78
2022/09/25 14:55:39;;;;;;;0.68;0.68;;;;;;;23.40;28.29;94407.63;2612187;47;20175;-78
2022/09/25 14:58:16;;;;;;;1.00;0.90;;;;;;;23.57;29.36;94418.91;2616107;48;20156;-79
2022/09/25 15:00:48;;;;;;;0.77;0.77;;;;;;;23.48;28.76;94412.56;2614597;54;20193;-78
2022/09/25 15:03:21;;;;;;;2.25;1.08;;;;;;;23.08;28.56;94425.63;2617116;47;20168;-79
2022/09/25 15:05:51;;;;;;;1.85;1.05;;;;;;;23.07;28.85;94424.22;2617919;54;20277;-78
2022/09/25 15:08:25;;;;;;;1.00;1.00;;;;;;;23.43;28.62;94419.88;2619373;47;20149;-78
2022/09/25 15:11:04;;;;;;;0.98;0.93;;;;;;;23.65;29.04;94424.50;2618384;54;20145;-80
2022/09/25 15:13:35;;;;;;;0.70;0.70;;;;;;;23.32;28.55;94425.16;2618082;54;20168;-79
2022/09/25 15:18:50;;;;;;;0.80;0.80;;;;;;;23.77;27.99;94420.66;2616944;47;20292;-76
2022/09/25 15:21:25;;;;;;;0.70;0.70;;;;;;;23.49;27.64;94413.25;2617389;47;20237;-75
2022/09/25 15:23:56;;;;;;;1.42;1.33;;;;;;;23.46;29.43;94424.16;2617641;46;20164;-77
2022/09/25 15:26:27;;;;;;;0.80;0.80;;;;;;;23.53;28.33;94418.97;2617450;54;20236;-77
2022/09/25 15:28:59;;;;;;;1.45;0.90;;;;;;;23.76;27.42;94405.47;2616766;54;20164;-78
2022/09/25 15:31:28;;;;;;;0.63;0.63;;;;;;;23.68;29.06;94417.91;2617016;47;20161;-78
2022/09/25 15:34:05;;;;;;;0.88;0.88;;;;;;;23.31;29.13;94400.63;2617402;47;20164;-77
2022/09/25 15:36:33;;;;;;;1.02;0.65;;;;;;;23.14;28.02;94413.94;2617427;47;20160;-76
2022/09/25 15:39:13;;;;;;;0.55;0.55;;;;;;;23.28;28.41;94407.19;2617489;47;20160;-76
2022/09/25 15:41:44;;;;;;;0.98;0.98;;;;;;;23.17;28.77;94405.97;2592597;54;20292;-78
2022/09/25 15:44:24;;;;;;;2.67;0.70;;;;;;;22.92;28.24;94414.38;2617760;47;20187;-75
2022/09/25 15:46:54;;;;;;;0.32;0.32;;;;;;;22.73;27.60;94416.16;2618137;31;20685;-76
2022/09/25 15:49:28;;;;;;;1.38;0.75;;;;;;;22.94;28.38;94417.25;2617359;49;20796;-76
2022/09/25 15:52:00;;;;;;;1.45;1.00;;;;;;;23.04;29.89;94417.03;2617683;47;20788;-76
2022/09/25 15:54:38;;;;;;;4.90;2.78;;;;;;;23.00;29.78;94420.00;2618245;31;20681;-76
2022/09/25 15:57:12;;;;;;;2.15;2.05;;;;;;;23.17;30.17;94409.56;2617487;47;20247;-77
2022/09/25 16:05:12;;;;;;;1.60;1.52;;;;;;;22.84;29.33;94414.53;2617236;54;20140;-77
2022/09/25 16:07:41;;;;;;;1.23;1.13;;;;;;;22.00;30.29;94391.41;2617369;47;20307;-74
2022/09/25 16:10:35;;;;;;;0.85;0.85;;;;;;;22.42;30.36;94396.47;2616701;54;20188;-74
2022/09/25 16:13:05;;;;;;;1.67;1.35;;;;;;;22.36;31.25;94410.31;2616156;54;20169;-76
2022/09/25 16:15:53;;;;;;;0.45;0.45;;;;;;;22.13;28.34;94412.84;2617257;54;20161;-74
2022/09/25 16:18:30;;;;;;;0.70;0.70;;;;;;;21.77;29.25;94417.66;2616919;47;20161;-77
2022/09/25 16:21:09;;;;;;;1.25;1.15;;;;;;;21.51;30.40;94403.63;2616951;39;20531;-78
2022/09/25 16:23:40;;;;;;;1.30;1.20;;;;;;;21.80;30.66;94413.28;2616323;54;20152;-77
2022/09/25 16:26:20;;;;;;;1.85;1.30;;;;;;;21.51;30.13;94418.03;2616927;47;20168;-78
2022/09/25 16:28:58;;;;;;;1.13;1.13;;;;;;;21.40;30.64;94402.31;2617631;47;20164;-78
2022/09/25 16:31:29;;;;;;;1.20;1.08;;;;;;;21.50;32.62;94410.81;2617764;54;20647;-78
2022/09/25 16:33:59;;;;;;;0.90;0.90;;;;;;;21.39;31.23;94418.19;2620041;54;20177;-83
2022/09/25 16:36:38;;;;;;;1.20;1.10;;;;;;;21.16;33.74;94421.31;2618338;47;20181;-77
2022/09/25 16:39:24;;;;;;;0.85;0.85;;;;;;;21.09;32.67;94422.81;2618745;54;20181;-79
2022/09/25 16:41:53;;;;;;;1.10;1.10;;;;;;;20.79;33.67;94403.00;2618045;54;20212;-77
2022/09/25 16:44:24;;;;;;;1.02;0.95;;;;;;;20.65;35.04;94426.19;2618704;54;20325;-77
2022/09/25 16:47:16;;;;;;;1.10;1.10;;;;;;;20.54;35.13;94426.28;2617846;47;20281;-78
2022/09/25 16:49:45;;;;;;;2.28;2.08;;;;;;;20.39;35.22;94421.38;2618073;46;20169;-78
2022/09/25 16:52:21;;;;;;;2.63;1.35;;;;;;;20.41;34.81;94430.72;2618908;39;20869;-77
2022/09/25 16:54:55;;;;;;;0.95;0.95;;;;;;;20.44;34.97;94425.66;2618457;54;20167;-77
2022/09/25 16:57:26;;;;;;;1.00;1.00;;;;;;;20.38;35.72;94417.06;2618169;54;20141;-77
2022/09/25 16:59:55;;;;;;;0.88;0.88;;;;;;;20.17;35.90;94433.78;2618677;54;20171;-76
2022/09/25 17:02:31;;;;;;;1.17;0.93;;;;;;;19.93;36.62;94433.97;2618959;47;20163;-77
2022/09/25 17:05:02;;;;;;;0.80;0.80;;;;;;;19.73;37.24;94421.13;2618443;54;20243;-79
2022/09/25 17:07:31;;;;;;;0.97;0.97;;;;;;;19.34;37.16;94411.28;2619212;47;20168;-80
2022/09/25 17:10:01;;;;;;;2.50;1.20;;;;;;;19.82;37.16;94436.88;2618353;54;20157;-77
2022/09/25 17:12:33;;;;;;;0.70;0.70;;;;;;;19.88;36.60;94439.72;2619184;54;20144;-76
2022/09/25 17:15:02;;;;;;;0.82;0.82;;;;;;;19.92;36.52;94438.28;2617981;46;20157;-79
2022/09/25 17:17:33;;;;;;;2.83;1.60;;;;;;;19.95;37.03;94436.81;2619921;46;20231;-77
2022/09/25 17:20:02;;;;;;;0.82;0.82;;;;;;;19.98;37.39;94461.94;2619051;54;20153;-77
2022/09/25 17:22:31;;;;;;;0.70;0.70;;;;;;;19.81;37.02;94431.88;2619759;54;20191;-78
2022/09/25 17:25:03;;;;;;;1.00;1.00;;;;;;;19.92;37.20;94449.75;2617833;39;20565;-77
2022/09/25 17:27:32;;;;;;;1.13;0.82;;;;;;;19.87;36.70;94443.31;2617951;39;20563;-76
2022/09/25 17:30:00;;;;;;;1.23;1.23;;;;;;;19.81;37.04;94443.38;2617315;47;20268;-77
2022/09/25 17:32:30;;;;;;;0.90;0.90;;;;;;;19.71;36.43;94429.06;2617233;47;20168;-76
2022/09/25 17:35:02;;;;;;;0.65;0.65;;;;;;;19.71;36.35;94424.03;2617130;54;20192;-78
2022/09/25 17:37:31;;;;;;;5.38;0.40;;;;;;;19.70;37.17;94428.34;2617182;47;20176;-78
2022/09/25 17:40:00;;;;;;;1.03;0.70;;;;;;;19.63;37.24;94412.59;2616694;47;20248;-77
2022/09/25 17:42:29;;;;;;;1.00;0.88;;;;;;;19.52;37.14;94422.72;2617000;54;20436;-76
2022/09/25 17:44:58;;;;;;;0.77;0.77;;;;;;;19.44;37.09;94429.16;2616826;47;20168;-77
2022/09/25 17:47:27;;;;;;;0.80;0.80;;;;;;;19.45;37.08;94441.38;2616948;47;20680;-76
2022/09/25 17:49:56;;;;;;;1.15;1.05;;;;;;;19.43;36.45;94439.22;2616242;54;20296;-76
2022/09/25 17:52:27;;;;;;;0.80;0.80;;;;;;;19.46;36.91;94439.94;2615187;54;20167;-77
2022/09/25 17:54:56;;;;;;;1.02;1.00;;;;;;;19.56;37.78;94450.69;2615242;54;20252;-76
2022/09/25 17:57:26;;;;;;;1.08;1.00;;;;;;;19.57;37.72;94447.09;2615370;47;20275;-77
2022/09/25 17:59:55;;;;;;;1.10;1.10;;;;;;;19.54;38.08;94454.31;2616220;54;20184;-76
2022/09/25 18:02:27;;;;;;;0.98;0.98;;;;;;;19.41;38.59;94444.25;2616145;54;20180;-76
2022/09/25 18:04:56;;;;;;;1.00;0.80;;;;;;;19.30;38.83;94462.97;2617050;54;20187;-76
2022/09/25 18:07:27;;;;;;;0.80;0.80;;;;;;;19.29;38.99;94473.03;2616906;47;20161;-77
2022/09/25 18:09:56;;;;;;;2.53;1.30;;;;;;;19.34;38.88;94478.03;2616411;54;20241;-74
2022/09/25 18:12:25;;;;;;;1.00;1.00;;;;;;;18.71;39.27;94483.25;2616599;54;20153;-76
2022/09/25 18:14:53;;;;;;;1.30;1.30;;;;;;;18.28;38.75;94480.38;2616168;47;20307;-75
2022/09/25 18:17:22;;;;;;;2.30;1.40;;;;;;;18.43;39.32;94478.22;2616714;54;20227;-75
2022/09/25 18:22:34;;;;;;;2.23;1.60;;;;;;;18.19;39.37;94478.91;2615142;46;20149;-77
2022/09/25 18:25:03;;;;;;;1.73;1.47;;;;;;;17.67;40.15;94488.88;2616414;46;20193;-75
2022/09/25 18:27:35;;;;;;;1.47;1.37;;;;;;;17.20;41.00;94472.94;2616441;47;20256;-75
2022/09/25 18:30:04;;;;;;;1.00;1.00;;;;;;;17.28;41.79;94478.69;2616418;54;20248;-77
2022/09/25 18:32:32;;;;;;;1.47;1.37;;;;;;;16.97;41.57;94484.28;2616281;47;20480;-78
2022/09/25 18:35:01;;;;;;;1.37;1.37;;;;;;;17.15;41.36;94474.34;2616582;54;20197;-78
2022/09/25 18:37:31;;;;;;;1.77;1.50;;;;;;;17.21;41.67;94477.97;2616744;47;20173;-77
2022/09/25 18:40:02;;;;;;;1.53;1.40;;;;;;;16.85;42.76;94469.91;2615403;47;20168;-78
2022/09/25 18:42:31;;;;;;;1.27;1.17;;;;;;;16.42;43.72;94471.75;2615995;46;20275;-78
2022/09/25 18:45:00;;;;;;;2.13;1.50;;;;;;;16.34;43.24;94466.69;2616247;47;20176;-77
2022/09/25 18:47:29;;;;;;;2.50;1.93;;;;;;;16.64;43.76;94471.22;2616111;54;20180;-77
2022/09/25 18:49:58;;;;;;;6.23;2.43;;;;;;;17.10;43.98;94475.75;2615342;54;20308;-78
2022/09/25 18:52:26;;;;;;;2.40;2.20;;;;;;;17.65;43.34;94488.88;2616069;54;20189;-78
2022/09/25 18:54:56;;;;;;;1.60;1.50;;;;;;;17.70;41.16;94489.59;2616691;47;20177;-78
2022/09/25 18:57:27;;;;;;;1.03;0.90;;;;;;;17.51;40.51;94488.06;2616335;47;20169;-79
2022/09/25 18:59:57;;;;;;;1.63;1.33;;;;;;;18.11;42.51;94496.13;2617845;47;20289;-77
2022/09/25 19:02:28;;;;;;;1.93;1.80;;;;;;;18.71;41.27;94494.72;2617543;47;20157;-79
2022/09/25 19:04:59;;;;;;;2.73;1.40;;;;;;;18.96;39.94;94481.03;2617477;47;20157;-77
2022/09/25 19:07:30;;;;;;;2.13;1.63;;;;;;;17.96;42.26;94481.06;2617487;46;20176;-77
2022/09/25 19:10:06;;;;;;;2.57;2.27;;;;;;;17.35;43.74;94498.06;2618986;47;20169;-80
2022/09/25 19:12:37;;;;;;;2.13;1.50;;;;;;;18.34;42.82;94494.69;2619311;54;20203;-76
2022/09/25 19:15:07;;;;;;;2.93;2.37;;;;;;;18.13;41.83;94487.53;2617832;54;20696;-74
2022/09/25 19:17:37;;;;;;;1.40;1.30;;;;;;;18.43;41.11;94496.16;2618365;54;20252;-74
2022/09/25 19:20:07;;;;;;;1.30;1.20;;;;;;;19.00;41.93;94492.50;2618724;54;20153;-77
2022/09/25 19:22:38;;;;;;;1.93;1.83;;;;;;;17.97;41.50;94479.63;2618334;47;20169;-77
2022/09/25 19:25:09;;;;;;;2.50;2.13;;;;;;;18.01;42.80;94484.66;2616798;46;20223;-78
2022/09/25 19:27:41;;;;;;;1.97;1.83;;;;;;;17.04;42.14;94351.28;2616311;47;20164;-78
2022/09/25 19:30:10;;;;;;;1.80;1.70;;;;;;;15.69;46.50;94471.16;2617671;39;20570;-80
2022/09/25 19:32:39;;;;;;;2.00;1.90;;;;;;;16.01;47.84;94482.13;2617148;47;20752;-77
2022/09/25 19:35:10;;;;;;;3.33;1.60;;;;;;;16.65;45.61;94472.66;2616004;54;20300;-78
2022/09/25 19:37:40;;;;;;;1.27;1.27;;;;;;;17.80;45.36;94486.03;2616091;47;20179;-78
2022/09/25 19:42:53;;;;;;;1.53;1.43;;;;;;;17.91;44.12;94487.47;2616599;54;20161;-78
2022/09/25 19:45:22;;;;;;;1.70;1.60;;;;;;;16.57;45.70;94495.44;2613805;47;20403;-76
2022/09/25 19:47:51;;;;;;;2.77;1.90;;;;;;;14.74;50.18;94476.41;2615469;47;20803;-77
2022/09/25 19:50:20;;;;;;;2.05;1.67;;;;;;;14.37;50.80;94480.09;2615868;54;20409;-77
2022/09/25 19:52:49;;;;;;;1.60;1.60;;;;;;;15.86;48.56;94492.00;2616184;47;20169;-77
2022/09/25 19:55:18;;;;;;;1.70;1.60;;;;;;;16.86;47.15;94488.50;2615946;47;20215;-77
2022/09/25 19:57:48;;;;;;;1.77;1.67;;;;;;;16.51;45.30;94490.41;2615702;47;20184;-77
2022/09/25 20:00:19;;;;;;;3.10;1.27;;;;;;;14.55;50.74;94497.50;2615784;54;20179;-77
2022/09/25 20:02:48;;;;;;;1.93;1.33;;;;;;;13.96;51.67;94467.34;2616251;54;20233;-77
2022/09/25 20:05:18;;;;;;;1.57;1.47;;;;;;;14.90;52.61;94465.22;2616347;54;20179;-77
2022/09/25 20:07:46;;;;;;;1.60;1.50;;;;;;;16.29;49.29;94482.38;2616180;39;20597;-78
2022/09/25 20:10:15;;;;;;;1.83;1.73;;;;;;;16.99;47.06;94475.00;2615749;47;20275;-77
2022/09/25 20:12:43;;;;;;;2.77;1.50;;;;;;;15.88;46.74;94481.31;2615348;47;20157;-77
2022/09/25 20:15:12;;;;;;;0.83;0.83;;;;;;;15.44;48.34;94447.31;2616175;47;20181;-77
2022/09/25 20:17:45;;;;;;;3.60;1.50;;;;;;;15.57;46.32;94468.88;2616323;54;20203;-76
2022/09/25 20:20:14;;;;;;;1.10;1.10;;;;;;;14.92;47.61;94478.78;2616239;47;20169;-77
2022/09/25 20:22:45;;;;;;;1.10;1.10;;;;;;;14.47;50.05;94483.16;2616972;39;20569;-77
2022/09/25 20:25:14;;;;;;;1.90;1.37;;;;;;;15.14;49.86;94487.63;2616247;54;20268;-77
2022/09/25 20:27:42;;;;;;;1.20;1.20;;;;;;;15.04;48.56;94483.91;2616089;47;20199;-77
2022/09/25 20:30:12;;;;;;;1.23;1.23;;;;;;;15.67;50.27;94488.25;2615998;47;20779;-77
2022/09/25 20:32:43;;;;;;;1.63;1.50;;;;;;;16.02;46.00;94489.28;2616059;54;20250;-77
2022/09/25 20:35:12;;;;;;;1.23;1.23;;;;;;;15.24;46.49;94472.75;2615897;47;20319;-78
2022/09/25 20:37:40;;;;;;;2.57;1.93;;;;;;;14.16;50.21;94457.03;2615947;47;20273;-77
2022/09/25 20:40:10;;;;;;;1.23;1.23;;;;;;;13.77;53.87;94491.97;2615560;47;20172;-77
2022/09/25 20:42:39;;;;;;;1.13;1.13;;;;;;;14.47;51.49;94474.59;2615933;54;20271;-76
2022/09/25 20:45:09;;;;;;;1.43;1.30;;;;;;;14.13;50.30;94461.25;2615811;54;20173;-77
2022/09/25 20:47:39;;;;;;;1.30;1.30;;;;;;;14.07;51.12;94469.72;2616092;54;20199;-78
2022/09/25 20:50:11;;;;;;;1.30;1.20;;;;;;;15.08;51.85;94472.56;2616046;54;20173;-76
2022/09/25 20:52:41;;;;;;;1.23;1.20;;;;;;;15.14;49.15;94469.78;2615768;47;20168;-77
2022/09/25 20:55:10;;;;;;;1.20;1.20;;;;;;;14.89;50.01;94440.25;2616567;47;20759;-76
2022/09/25 20:57:39;;;;;;;0.97;0.97;;;;;;;15.44;48.01;94463.72;2615885;54;20164;-77
2022/09/25 21:00:09;;;;;;;1.13;1.13;;;;;;;15.13;48.07;94479.75;2616353;54;20252;-77
2022/09/25 21:02:38;;;;;;;1.83;1.50;;;;;;;16.05;49.36;94456.47;2616030;47;20161;-77
2022/09/25 21:05:08;;;;;;;2.07;1.87;;;;;;;15.92;46.80;94472.06;2615582;47;20281;-77
2022/09/25 21:07:40;;;;;;;1.50;1.40;;;;;;;15.84;47.12;94463.44;2615396;54;20164;-78
2022/09/25 21:10:09;;;;;;;1.93;1.83;;;;;;;17.04;46.21;94460.00;2615007;47;20176;-78
2022/09/25 21:12:38;;;;;;;1.47;1.37;;;;;;;15.83;46.63;94456.28;2615103;47;20204;-77
2022/09/25 21:15:08;;;;;;;0.77;0.73;;;;;;;16.19;45.79;94444.44;2615377;54;20164;-78
2022/09/25 21:17:36;;;;;;;1.03;1.03;;;;;;;17.04;45.48;94450.69;2615858;54;20244;-78
2022/09/25 21:20:05;;;;;;;1.70;1.30;;;;;;;17.29;44.21;94422.88;2615979;39;20743;-77
2022/09/25 21:22:34;;;;;;;1.13;1.13;;;;;;;17.09;44.71;94469.31;2615635;47;20193;-79
2022/09/25 21:25:06;;;;;;;1.77;1.57;;;;;;;17.50;44.69;94455.88;2616151;39;20875;-77
2022/09/25 21:27:35;;;;;;;1.57;1.47;;;;;;;16.98;44.08;94454.25;2616463;47;20161;-78
2022/09/25 21:30:04;;;;;;;1.53;1.47;;;;;;;16.49;47.41;94432.50;2616546;47;20208;-77
2022/09/25 21:32:32;;;;;;;1.30;1.23;;;;;;;16.74;45.75;94461.97;2617069;54;20240;-77
2022/09/25 21:35:01;;;;;;;8.10;1.17;;;;;;;17.30;46.05;94467.97;2616500;47;20197;-77
2022/09/25 21:37:30;;;;;;;1.43;1.30;;;;;;;17.42;44.10;94467.31;2616135;47;20264;-77
2022/09/25 21:39:58;;;;;;;1.30;1.20;;;;;;;16.56;46.15;94448.97;2616219;54;20408;-76
2022/09/25 21:42:29;;;;;;;0.93;0.93;;;;;;;16.45;46.31;94438.91;2616440;47;20189;-76
2022/09/25 21:44:59;;;;;;;1.47;1.30;;;;;;;17.31;45.06;94423.63;2616661;54;20145;-77
2022/09/25 21:47:29;;;;;;;1.43;1.37;;;;;;;17.65;44.27;94419.41;2616337;54;20286;-76
2022/09/25 21:49:58;;;;;;;1.40;1.30;;;;;;;17.25;45.07;94431.47;2616211;54;20176;-76
2022/09/25 21:52:27;;;;;;;1.30;1.20;;;;;;;16.39;45.34;94413.16;2616009;47;20272;-77
2022/09/25 21:54:56;;;;;;;3.60;2.60;;;;;;;14.49;50.83;94417.63;2616416;46;20291;-75
2022/09/25 21:57:24;;;;;;;1.47;1.47;;;;;;;14.27;51.81;94423.00;2616051;54;20232;-77
2022/09/25 21:59:55;;;;;;;1.73;1.63;;;;;;;15.74;49.04;94400.50;2616125;47;20699;-76
2022/09/25 22:02:24;;;;;;;1.33;1.33;;;;;;;16.49;47.89;94432.50;2616207;47;20231;-76
2022/09/25 22:04:53;;;;;;;1.43;1.20;;;;;;;16.54;47.46;94433.94;2616269;47;20265;-76
2022/09/25 22:07:22;;;;;;;1.77;1.47;;;;;;;16.56;47.10;94391.81;2616091;47;20256;-76
2022/09/25 22:09:51;;;;;;;1.60;1.50;;;;;;;15.71;47.19;94401.94;2616663;47;22613;-76
2022/09/25 22:12:19;;;;;;;2.63;2.10;;;;;;;14.64;50.34;94387.19;2616450;47;20332;-76
2022/09/25 22:14:48;;;;;;;1.67;1.57;;;;;;;15.39;50.80;94420.16;2615793;47;20172;-76
2022/09/25 22:17:19;;;;;;;0.97;0.97;;;;;;;16.79;47.17;94418.41;2616276;47;20293;-75
2022/09/25 22:19:48;;;;;;;1.40;1.40;;;;;;;15.87;46.89;94394.19;2615739;54;20184;-76
2022/09/25 22:22:17;;;;;;;2.70;1.60;;;;;;;16.06;49.41;94426.47;2616123;54;20264;-76
2022/09/25 22:24:45;;;;;;;1.27;1.27;;;;;;;16.66;46.19;94405.47;2616515;39;20279;-76
2022/09/25 22:27:14;;;;;;;1.30;1.30;;;;;;;16.72;46.51;94414.06;2616154;46;20221;-75
2022/09/25 22:29:42;;;;;;;3.07;1.13;;;;;;;16.70;46.94;94408.34;2616290;54;20808;-77
2022/09/25 22:32:11;;;;;;;2.07;1.97;;;;;;;17.53;44.92;94457.31;2616985;54;20315;-77
2022/09/25 22:34:42;;;;;;;6.43;3.37;;;;;;;17.74;44.13;94447.38;2616187;54;20248;-75
2022/09/25 22:37:11;;;;;;;1.53;1.43;;;;;;;17.57;43.47;94417.25;2616218;54;20702;-75
2022/09/25 22:39:40;;;;;;;1.57;1.27;;;;;;;16.32;46.21;94435.25;2616227;47;20256;-76
2022/09/25 22:42:08;;;;;;;1.33;1.23;;;;;;;14.83;50.37;94443.75;2615733;47;20261;-76
2022/09/25 22:44:37;;;;;;;1.17;1.17;;;;;;;16.04;49.25;94449.31;2616247;47;20204;-76
2022/09/25 22:47:06;;;;;;;1.00;1.00;;;;;;;16.76;46.30;94459.13;2615569;47;20208;-76
2022/09/25 22:49:35;;;;;;;4.00;1.63;;;;;;;16.92;45.88;94433.50;2616117;47;20221;-76
2022/09/25 22:52:06;;;;;;;1.60;1.50;;;;;;;15.46;48.22;94407.38;2616183;54;20179;-75
2022/09/25 22:54:35;;;;;;;1.87;1.77;;;;;;;14.34;52.70;94433.09;2616082;47;20149;-76
2022/09/25 22:57:03;;;;;;;1.30;1.23;;;;;;;15.01;51.13;94426.16;2615901;47;20255;-76
2022/09/25 22:59:32;;;;;;;0.87;0.87;;;;;;;15.87;49.33;94413.47;2615870;47;20227;-76
2022/09/25 23:02:01;;;;;;;1.00;1.00;;;;;;;15.66;48.92;94440.41;2616479;39;20950;-75
2022/09/25 23:04:29;;;;;;;1.33;1.23;;;;;;;14.98;50.78;94423.97;2616713;31;20665;-76
2022/09/25 23:06:58;;;;;;;4.37;1.67;;;;;;;13.57;53.96;94418.34;2615812;47;20804;-77
2022/09/25 23:09:30;;;;;;;1.70;1.37;;;;;;;13.12;57.36;94428.16;2615872;47;20161;-76
2022/09/25 23:11:59;;;;;;;1.37;1.27;;;;;;;15.05;52.23;94434.75;2615671;54;20208;-76
2022/09/25 23:14:31;;;;;;;1.77;1.67;;;;;;;15.13;51.51;94439.84;2615505;54;20181;-76
2022/09/25 23:17:00;;;;;;;3.73;1.43;;;;;;;15.82;49.60;94435.56;2616106;54;20273;-76
2022/09/25 23:19:29;;;;;;;1.30;1.20;;;;;;;16.53;48.03;94432.53;2615073;54;20192;-76
2022/09/25 23:21:58;;;;;;;3.83;1.50;;;;;;;14.63;51.47;94400.72;2615964;54;20288;-76
2022/09/25 23:24:30;;;;;;;1.33;1.33;;;;;;;14.08;53.65;94422.00;2616765;47;20285;-75
2022/09/25 23:26:58;;;;;;;3.10;2.03;;;;;;;14.29;53.66;94408.78;2616803;47;20164;-76
2022/09/25 23:29:27;;;;;;;2.23;2.00;;;;;;;14.91;51.16;94421.03;2617481;47;20265;-76
2022/09/25 23:31:56;;;;;;;1.93;1.63;;;;;;;15.07;51.30;94397.69;2617475;47;20176;-76
2022/09/25 23:34:25;;;;;;;1.17;1.07;;;;;;;16.39;48.58;94423.88;2616402;54;20208;-76
2022/09/25 23:36:54;;;;;;;2.53;1.30;;;;;;;16.61;47.19;94406.84;2616093;54;20299;-76
2022/09/25 23:39:23;;;;;;;1.33;1.23;;;;;;;17.05;46.98;94435.69;2616182;54;20173;-77
2022/09/25 23:41:55;;;;;;;1.27;1.17;;;;;;;15.22;50.36;94418.53;2616565;54;20280;-76
2022/09/25 23:44:23;;;;;;;1.50;1.50;;;;;;;15.10;51.13;94421.25;2616333;54;20167;-76
2022/09/25 23:46:53;;;;;;;1.60;1.50;;;;;;;16.04;48.83;94392.19;2616187;54;20172;-77
2022/09/25 23:49:21;;;;;;;1.30;1.30;;;;;;;15.66;49.55;94432.56;2615909;47;20163;-76
2022/09/25 23:51:50;;;;;;;1.37;1.07;;;;;;;16.14;49.05;94425.81;2614933;47;20175;-77
2022/09/25 23:54:19;;;;;;;1.60;1.50;;;;;;;16.50;47.70;94419.66;2615488;47;20187;-77
2022/09/25 23:56:48;;;;;;;1.90;1.70;;;;;;;15.43;50.42;94405.94;2616062;47;20173;-77
2022/09/25 23:59:19;;;;;;;1.23;1.23;;;;;;;16.73;47.51;94417.66;2615824;47;20205;-76
